Time;durP1;ratioP1;P1;durP2;ratioP2;P2;SDS_P1;SDS_P2;PMS_P1;PMS_P2;Temp;Humidity;BMP_temperature;BMP_pressure;BME280_temperature;BME280_humidity;BME280_pressure;Samples;Min_cycle;Max_cycle;Signal;HPM_P1;HPM_P2
2022/10/02 00:03:55;;;;;;;3.20;0.85;;;;;;;20.93;54.90;100806.97;5089693;27;20406;-58
2022/10/02 00:06:23;;;;;;;1.53;0.80;;;;;;;20.93;54.74;100812.34;5066640;28;20894;-59
2022/10/02 00:08:55;;;;;;;3.58;0.90;;;;;;;20.88;54.69;100799.56;5066500;28;20941;-59
2022/10/02 00:11:42;;;;;;;1.52;0.80;;;;;;;20.89;54.57;100797.72;5076487;27;20430;-58
2022/10/02 00:14:12;;;;;;;2.70;0.80;;;;;;;20.85;54.62;100800.06;5086727;28;20934;-59
2022/10/02 00:16:45;;;;;;;1.58;0.80;;;;;;;20.81;54.66;100785.41;5086724;28;20386;-59
2022/10/02 00:19:16;;;;;;;2.85;0.80;;;;;;;20.75;54.78;100789.88;5086969;28;20389;-59
2022/10/02 00:21:47;;;;;;;2.50;1.08;;;;;;;20.75;55.00;100803.34;5076376;28;20418;-58
2022/10/02 00:28:45;;;;;;;1.67;0.85;;;;;;;20.66;54.97;100793.16;5089606;27;20465;-59
2022/10/02 00:31:24;;;;;;;2.65;0.80;;;;;;;20.69;54.28;100811.53;5009439;28;20409;-58
2022/10/02 00:35:59;;;;;;;3.90;1.23;;;;;;;20.58;54.17;100810.44;5094225;27;20992;-58
2022/10/02 00:38:43;;;;;;;1.13;0.70;;;;;;;20.55;54.24;100810.94;5066715;28;20392;-58
2022/10/02 00:41:33;;;;;;;2.05;0.80;;;;;;;20.51;54.14;100807.91;5068597;28;20758;-58
2022/10/02 00:44:14;;;;;;;1.95;0.75;;;;;;;20.47;54.07;100798.63;5086965;28;20824;-58
2022/10/02 00:46:57;;;;;;;2.55;0.80;;;;;;;20.48;53.97;100797.59;5066700;28;20380;-59
2022/10/02 00:49:57;;;;;;;2.30;0.80;;;;;;;20.46;54.20;100809.66;5066673;28;20441;-58
2022/10/02 00:53:03;;;;;;;4.20;0.93;;;;;;;20.44;54.42;100807.19;5090213;27;20413;-59
2022/10/02 00:57:48;;;;;;;2.65;1.50;;;;;;;20.32;54.22;100804.47;5096484;27;20402;-58
2022/10/02 01:02:30;;;;;;;2.50;0.80;;;;;;;20.30;53.67;100817.34;5095418;27;20408;-58
2022/10/02 01:06:52;;;;;;;1.88;0.80;;;;;;;20.30;53.65;100827.31;5083666;27;20936;-58
2022/10/02 01:10:13;;;;;;;3.28;0.70;;;;;;;20.32;53.45;100835.97;5078217;27;20457;-59
2022/10/02 01:12:39;;;;;;;3.03;1.52;;;;;;;20.24;53.56;100832.56;5052545;28;20930;-59
2022/10/02 01:15:13;;;;;;;1.40;0.80;;;;;;;20.22;53.31;100836.50;5052169;28;20385;-61
2022/10/02 01:18:04;;;;;;;1.38;0.60;;;;;;;20.15;53.23;100831.25;5083047;27;20763;-58
2022/10/02 01:20:51;;;;;;;1.75;0.60;;;;;;;20.16;53.11;100832.06;5066842;28;20398;-58
2022/10/02 01:23:34;;;;;;;2.30;0.65;;;;;;;20.18;52.91;100828.09;5066815;28;20398;-58
2022/10/02 01:26:25;;;;;;;1.40;0.50;;;;;;;20.18;52.57;100817.31;5090367;27;20947;-59
2022/10/02 01:28:50;;;;;;;1.17;0.67;;;;;;;20.23;52.61;100825.53;5066891;28;20400;-58
2022/10/02 01:32:15;;;;;;;1.65;0.50;;;;;;;20.21;52.48;100830.31;5040501;28;20461;-58
2022/10/02 01:34:41;;;;;;;2.10;0.70;;;;;;;20.20;52.41;100838.63;5021950;28;20440;-59
2022/10/02 01:38:38;;;;;;;3.03;0.70;;;;;;;20.16;52.52;100848.22;5038547;28;20492;-59
2022/10/02 01:42:15;;;;;;;4.20;0.60;;;;;;;20.10;52.55;100841.06;5091064;27;20783;-59
2022/10/02 01:44:42;;;;;;;2.55;1.23;;;;;;;20.08;52.73;100854.75;5067312;28;20889;-60
2022/10/02 01:47:11;;;;;;;1.73;1.00;;;;;;;19.92;52.98;100845.47;5061852;28;20427;-58
2022/10/02 01:50:05;;;;;;;3.38;1.23;;;;;;;19.98;52.77;100844.53;5057714;28;20776;-59
2022/10/02 01:52:56;;;;;;;2.00;1.33;;;;;;;19.98;52.83;100855.28;5057668;28;20471;-59
2022/10/02 01:55:24;;;;;;;2.65;0.90;;;;;;;19.91;52.79;100853.75;5060311;28;20818;-59
2022/10/02 01:59:54;;;;;;;1.95;0.70;;;;;;;19.86;52.88;100874.09;5090578;27;20406;-58
2022/10/02 02:02:28;;;;;;;2.10;0.80;;;;;;;19.87;52.85;100877.59;5074605;28;20459;-58
2022/10/02 02:05:02;;;;;;;3.72;0.90;;;;;;;19.92;52.40;100874.25;5082827;28;20387;-59
2022/10/02 02:08:06;;;;;;;0.80;0.60;;;;;;;19.94;52.34;100872.13;5076051;28;20382;-58
2022/10/02 02:12:18;;;;;;;1.83;0.70;;;;;;;19.93;52.23;100875.88;5049222;28;20414;-58
2022/10/02 02:14:51;;;;;;;1.55;0.65;;;;;;;19.88;52.32;100895.41;5035002;28;20982;-59
2022/10/02 02:17:34;;;;;;;1.50;0.60;;;;;;;19.86;52.36;100901.00;5073750;27;20406;-59
2022/10/02 02:20:12;;;;;;;3.70;0.68;;;;;;;19.88;52.59;100916.09;5066879;28;20458;-58
2022/10/02 02:23:02;;;;;;;1.40;0.70;;;;;;;19.80;53.00;100925.28;5097996;27;20467;-59
2022/10/02 02:25:30;;;;;;;2.58;0.90;;;;;;;19.68;53.40;100931.41;5085101;28;20780;-58
2022/10/02 02:28:02;;;;;;;0.98;0.88;;;;;;;19.59;53.78;100932.75;5066856;28;20670;-58
2022/10/02 02:30:30;;;;;;;1.35;0.93;;;;;;;19.65;53.64;100931.84;5066169;28;20380;-60
2022/10/02 02:33:50;;;;;;;3.10;1.30;;;;;;;19.77;53.49;100920.34;5091919;27;20830;-58
2022/10/02 02:36:20;;;;;;;2.67;1.03;;;;;;;19.84;53.29;100921.94;5059266;28;20397;-58
2022/10/02 02:39:00;;;;;;;2.15;1.13;;;;;;;19.99;52.94;100929.59;5086948;28;20387;-58
2022/10/02 02:41:29;;;;;;;1.40;1.30;;;;;;;20.09;52.94;100930.91;5053395;28;20835;-58
2022/10/02 02:44:01;;;;;;;2.30;1.30;;;;;;;20.09;53.07;100925.53;5080100;28;20394;-58
2022/10/02 02:49:31;;;;;;;1.70;1.37;;;;;;;20.07;53.23;100922.25;5086489;28;20388;-58
2022/10/02 02:55:44;;;;;;;2.47;1.55;;;;;;;20.03;53.29;100940.72;5043418;28;20408;-58
2022/10/02 02:58:18;;;;;;;1.80;1.50;;;;;;;19.99;53.23;100934.16;5026573;28;20399;-58
2022/10/02 03:00:43;;;;;;;2.10;1.42;;;;;;;19.98;53.39;100941.41;5027081;28;20394;-59
2022/10/02 03:05:35;;;;;;;5.40;2.10;;;;;;;19.87;53.93;100947.56;5047253;28;20925;-59
2022/10/02 03:08:12;;;;;;;2.67;2.40;;;;;;;19.83;53.90;100941.81;5026754;28;20415;-58
2022/10/02 03:10:44;;;;;;;2.88;2.35;;;;;;;19.80;53.93;100944.94;5026712;28;20388;-58
2022/10/02 03:13:26;;;;;;;3.60;3.03;;;;;;;19.74;54.16;100951.22;5026481;28;20395;-57
2022/10/02 03:16:14;;;;;;;3.25;2.30;;;;;;;19.77;53.89;100947.25;5026893;28;20383;-58
2022/10/02 03:20:48;;;;;;;2.30;2.10;;;;;;;19.94;53.33;100950.97;5070662;27;20407;-60
2022/10/02 03:25:09;;;;;;;2.50;2.05;;;;;;;19.97;53.26;100957.75;5084237;27;20916;-58
2022/10/02 03:27:41;;;;;;;2.50;1.97;;;;;;;19.86;53.70;100965.56;5066062;28;20434;-58
2022/10/02 03:30:11;;;;;;;3.33;1.98;;;;;;;19.81;53.83;100976.19;5066390;28;20952;-60
2022/10/02 03:32:39;;;;;;;2.80;2.00;;;;;;;19.82;53.90;100985.88;5065576;28;20384;-58
2022/10/02 03:35:09;;;;;;;3.75;2.00;;;;;;;19.88;53.88;100989.56;5065915;28;20840;-58
2022/10/02 03:37:35;;;;;;;3.10;2.20;;;;;;;19.83;53.78;100987.53;5066086;28;20441;-58
2022/10/02 03:40:00;;;;;;;4.32;2.60;;;;;;;19.81;53.90;101007.66;5065329;28;20399;-58
2022/10/02 03:42:30;;;;;;;2.60;2.03;;;;;;;19.78;54.01;101016.97;5065998;28;20407;-58
2022/10/02 03:51:23;;;;;;;4.05;2.13;;;;;;;19.71;53.26;101028.81;5075166;27;20811;-59
2022/10/02 03:53:49;;;;;;;2.40;1.90;;;;;;;19.76;52.83;101020.94;5089825;28;20416;-58
2022/10/02 03:56:49;;;;;;;3.53;1.80;;;;;;;19.77;52.33;101038.72;5068620;28;20396;-59
2022/10/02 04:00:25;;;;;;;1.83;1.50;;;;;;;19.79;51.62;101048.22;5089462;27;20412;-58
2022/10/02 04:07:06;;;;;;;2.10;1.65;;;;;;;19.68;51.11;101055.13;5050337;28;20465;-58
2022/10/02 04:09:45;;;;;;;2.57;1.40;;;;;;;19.64;50.78;101074.59;5026061;28;20419;-56
2022/10/02 04:12:16;;;;;;;1.67;1.57;;;;;;;19.72;50.47;101076.22;5026050;28;20407;-58
2022/10/02 04:14:51;;;;;;;2.20;1.30;;;;;;;19.71;49.88;101091.50;5026055;28;20387;-59
2022/10/02 04:17:25;;;;;;;3.10;1.40;;;;;;;19.68;49.91;101082.03;5022636;28;20482;-58
2022/10/02 04:20:01;;;;;;;1.60;1.30;;;;;;;19.63;49.68;101087.22;5024181;28;20398;-59
2022/10/02 04:22:38;;;;;;;2.38;1.30;;;;;;;19.59;49.82;101093.25;5026072;28;20517;-58
2022/10/02 04:25:20;;;;;;;2.00;1.40;;;;;;;19.68;49.32;101095.47;5025658;28;20849;-59
2022/10/02 04:28:13;;;;;;;2.67;1.40;;;;;;;19.66;49.05;101086.81;5035129;28;20479;-59
2022/10/02 04:30:38;;;;;;;2.45;1.20;;;;;;;19.74;48.71;101082.22;5024632;28;20445;-59
2022/10/02 04:33:13;;;;;;;1.20;1.10;;;;;;;19.67;48.29;101101.88;5025827;28;20384;-58
2022/10/02 04:36:06;;;;;;;1.85;1.20;;;;;;;19.64;47.61;101118.47;5025710;28;20390;-58
2022/10/02 04:38:41;;;;;;;3.33;1.10;;;;;;;19.88;46.93;101117.84;5023758;28;20901;-58
2022/10/02 04:41:44;;;;;;;1.97;1.13;;;;;;;20.07;46.44;101116.03;5025734;28;20391;-58
2022/10/02 04:44:45;;;;;;;1.35;1.00;;;;;;;20.17;46.24;101127.09;4983612;28;20422;-58
2022/10/02 04:47:17;;;;;;;1.10;0.90;;;;;;;20.38;45.49;101129.34;5025328;28;20388;-59
2022/10/02 04:49:59;;;;;;;3.53;0.90;;;;;;;20.60;44.96;101142.34;5025089;28;20395;-58
2022/10/02 04:52:34;;;;;;;1.92;0.90;;;;;;;20.77;44.28;101137.19;5025571;28;20395;-59
2022/10/02 04:55:36;;;;;;;0.65;0.60;;;;;;;20.96;43.44;101135.28;5024193;28;20392;-59
2022/10/02 04:58:47;;;;;;;1.15;0.60;;;;;;;20.90;42.67;101155.84;5094141;27;20945;-59
2022/10/02 05:01:19;;;;;;;1.80;0.70;;;;;;;21.03;42.36;101151.34;5082164;28;20505;-59
2022/10/02 05:04:12;;;;;;;1.48;0.70;;;;;;;21.12;41.64;101153.50;5078700;28;20378;-59
2022/10/02 05:07:02;;;;;;;1.70;0.73;;;;;;;21.32;41.09;101161.28;5082758;28;20390;-59
2022/10/02 05:09:51;;;;;;;2.70;0.77;;;;;;;21.27;40.93;101168.44;5080374;28;20394;-60
2022/10/02 05:12:33;;;;;;;2.88;0.68;;;;;;;20.91;41.16;101175.56;5078365;28;20810;-58
2022/10/02 05:15:17;;;;;;;2.03;0.70;;;;;;;20.66;41.08;101178.38;5086567;28;20461;-58
2022/10/02 05:18:14;;;;;;;4.10;0.70;;;;;;;20.50;41.37;101185.13;5073205;28;20478;-59
2022/10/02 05:21:30;;;;;;;4.90;0.90;;;;;;;20.95;40.66;101199.13;5044357;28;20990;-58
2022/10/02 05:24:11;;;;;;;2.70;0.60;;;;;;;21.27;40.05;101181.91;5023600;28;20403;-59
2022/10/02 05:27:01;;;;;;;1.00;0.57;;;;;;;21.46;39.34;101205.06;5026761;28;20399;-58
2022/10/02 05:29:43;;;;;;;1.30;0.70;;;;;;;21.62;38.98;101210.88;5016643;28;20818;-58
2022/10/02 05:32:45;;;;;;;1.67;1.00;;;;;;;21.83;38.86;101231.09;5026288;28;20482;-57
2022/10/02 05:35:51;;;;;;;2.30;1.08;;;;;;;22.32;37.92;101227.16;5018084;28;20797;-58
2022/10/02 05:41:17;;;;;;;1.98;1.30;;;;;;;22.90;36.93;101230.84;5086370;27;20764;-59
2022/10/02 05:43:54;;;;;;;3.23;0.90;;;;;;;22.99;36.35;101231.25;5066559;28;20468;-60
2022/10/02 05:46:25;;;;;;;2.93;0.90;;;;;;;23.13;36.46;101218.31;5066352;28;20793;-59
2022/10/02 05:49:07;;;;;;;1.48;1.08;;;;;;;23.33;36.26;101233.28;5065367;28;20387;-59
2022/10/02 05:51:54;;;;;;;1.02;0.80;;;;;;;23.58;35.69;101228.31;5056133;28;20889;-59
2022/10/02 05:54:44;;;;;;;2.25;1.15;;;;;;;23.92;35.26;101225.66;5063791;28;20479;-59
2022/10/02 05:57:26;;;;;;;1.20;1.00;;;;;;;24.27;34.71;101237.28;5063992;28;20905;-59
2022/10/02 05:59:51;;;;;;;2.30;0.90;;;;;;;24.37;34.13;101249.06;5062859;28;20419;-59
2022/10/02 06:02:27;;;;;;;2.40;0.87;;;;;;;24.50;33.94;101247.91;5065395;28;20901;-58
2022/10/02 06:05:10;;;;;;;2.42;0.95;;;;;;;24.97;33.23;101239.31;5064012;28;20398;-59
2022/10/02 06:07:37;;;;;;;2.95;0.90;;;;;;;25.36;32.66;101249.25;5066100;28;20384;-58
2022/10/02 06:10:17;;;;;;;1.55;0.80;;;;;;;25.74;31.63;101255.56;5065147;28;20807;-59
2022/10/02 06:13:14;;;;;;;1.73;1.40;;;;;;;26.09;31.50;101265.09;5065959;28;20396;-59
2022/10/02 06:18:06;;;;;;;1.85;0.93;;;;;;;26.25;30.84;101258.72;5037621;28;20816;-59
2022/10/02 06:20:31;;;;;;;1.65;1.00;;;;;;;26.54;30.40;101257.50;5026836;28;20403;-58
2022/10/02 06:23:44;;;;;;;2.10;0.90;;;;;;;26.65;30.09;101257.34;5026920;28;20804;-59
2022/10/02 06:27:59;;;;;;;3.75;1.00;;;;;;;28.01;28.44;101258.19;5083253;27;20403;-59
2022/10/02 06:30:28;;;;;;;1.20;0.80;;;;;;;28.54;27.30;101269.56;5065371;28;20411;-58
2022/10/02 06:33:04;;;;;;;1.80;1.00;;;;;;;29.10;26.27;101262.22;5066637;28;20886;-59
2022/10/02 06:35:53;;;;;;;4.50;1.13;;;;;;;29.95;25.48;101274.81;5067161;28;20936;-58
2022/10/02 06:38:51;;;;;;;2.40;0.70;;;;;;;29.96;25.05;101279.16;5055635;28;20383;-58
2022/10/02 06:41:31;;;;;;;1.53;0.90;;;;;;;28.34;27.19;101300.41;5065362;28;20391;-58
2022/10/02 06:44:38;;;;;;;1.77;1.08;;;;;;;27.42;28.45;101316.69;5065102;28;20395;-58
2022/10/02 06:47:14;;;;;;;2.90;1.50;;;;;;;27.08;29.51;101298.03;5021669;28;20422;-59
2022/10/02 06:50:03;;;;;;;2.25;1.30;;;;;;;26.56;29.64;101309.72;5060904;28;20395;-58
2022/10/02 06:52:35;;;;;;;1.00;0.80;;;;;;;26.44;30.03;101321.63;5066087;28;20384;-59
2022/10/02 06:55:19;;;;;;;1.27;0.80;;;;;;;26.45;30.56;101317.84;5051829;28;20395;-58
2022/10/02 06:57:53;;;;;;;1.65;0.90;;;;;;;26.54;29.80;101322.75;5066297;28;20390;-58
2022/10/02 07:00:21;;;;;;;3.25;0.90;;;;;;;26.29;29.83;101316.91;5065150;28;20474;-59
2022/10/02 07:03:08;;;;;;;1.55;1.17;;;;;;;26.16;30.51;101319.22;5065478;28;20391;-58
2022/10/02 07:05:36;;;;;;;1.92;0.85;;;;;;;26.20;30.25;101325.78;5048055;28;20401;-58
2022/10/02 07:08:26;;;;;;;2.88;0.90;;;;;;;25.98;30.01;101323.97;5061672;28;20391;-58
2022/10/02 07:11:09;;;;;;;3.00;1.10;;;;;;;25.68;30.25;101321.78;5062604;28;20442;-58
2022/10/02 07:13:59;;;;;;;0.85;0.60;;;;;;;25.75;30.48;101344.13;5063868;28;20441;-58
2022/10/02 07:16:49;;;;;;;1.45;0.73;;;;;;;25.82;30.39;101344.75;5064026;28;20770;-58
2022/10/02 07:21:08;;;;;;;2.03;0.60;;;;;;;25.50;30.21;101352.81;5069364;27;20820;-57
2022/10/02 07:23:45;;;;;;;1.65;0.90;;;;;;;25.31;30.72;101341.47;5066721;28;20849;-57
2022/10/02 07:26:14;;;;;;;4.70;1.10;;;;;;;25.29;30.71;101358.00;5058807;28;20376;-58
2022/10/02 07:28:53;;;;;;;2.30;0.90;;;;;;;25.39;30.82;101362.75;5060327;28;20461;-58
2022/10/02 07:31:45;;;;;;;2.10;1.10;;;;;;;25.37;30.36;101341.28;5055794;28;20392;-59
2022/10/02 07:34:35;;;;;;;1.38;0.95;;;;;;;25.33;30.81;101347.44;5061691;28;20518;-58
2022/10/02 07:37:09;;;;;;;2.53;1.00;;;;;;;25.43;30.94;101352.19;5058792;28;20380;-57
2022/10/02 07:39:55;;;;;;;2.30;0.88;;;;;;;25.35;30.90;101348.84;5061110;28;20404;-60
2022/10/02 07:42:29;;;;;;;2.30;0.75;;;;;;;25.37;31.27;101351.28;5060327;28;20388;-58
2022/10/02 07:45:09;;;;;;;2.55;0.73;;;;;;;25.52;31.20;101353.38;5055189;28;20836;-60
2022/10/02 07:48:16;;;;;;;1.35;0.70;;;;;;;25.58;31.05;101359.69;5059115;28;20396;-58
2022/10/02 07:51:45;;;;;;;2.03;1.00;;;;;;;25.59;31.47;101364.88;5057061;28;21779;-58
2022/10/02 07:55:43;;;;;;;1.77;0.82;;;;;;;25.32;31.70;101354.78;5082090;27;20464;-59
2022/10/02 07:58:21;;;;;;;3.08;1.27;;;;;;;25.36;31.51;101358.63;5075289;28;20416;-59
2022/10/02 08:00:58;;;;;;;2.47;0.80;;;;;;;25.48;31.22;101358.50;5074995;28;20491;-62
2022/10/02 08:03:30;;;;;;;2.00;0.77;;;;;;;25.60;31.33;101362.97;5082890;28;20907;-58
2022/10/02 08:05:58;;;;;;;2.77;0.80;;;;;;;25.56;31.06;101357.22;5080077;28;20769;-61
2022/10/02 08:08:23;;;;;;;2.47;0.88;;;;;;;25.60;30.96;101358.34;5073299;28;20392;-60
2022/10/02 08:10:57;;;;;;;1.30;0.60;;;;;;;25.73;30.85;101360.66;5076762;28;20502;-61
2022/10/02 08:13:38;;;;;;;2.42;0.70;;;;;;;25.65;31.06;101366.53;5078500;28;20931;-62
2022/10/02 08:16:06;;;;;;;5.75;0.90;;;;;;;25.66;31.27;101370.06;5070517;28;20411;-61
2022/10/02 08:18:47;;;;;;;1.90;0.80;;;;;;;25.68;30.83;101370.66;5079824;28;20398;-61
2022/10/02 08:21:19;;;;;;;2.70;0.70;;;;;;;25.54;31.31;101372.94;5079530;28;21019;-61
2022/10/02 08:23:51;;;;;;;1.77;0.90;;;;;;;25.51;31.66;101363.41;5089476;28;20630;-61
2022/10/02 08:26:29;;;;;;;2.78;0.85;;;;;;;25.63;31.50;101365.16;5074328;28;20394;-60
2022/10/02 08:29:19;;;;;;;3.28;0.70;;;;;;;25.83;31.25;101359.13;5070166;28;20427;-62
2022/10/02 08:31:45;;;;;;;1.70;0.70;;;;;;;25.43;32.06;101363.06;5064733;28;20913;-63
2022/10/02 08:34:22;;;;;;;2.17;0.70;;;;;;;25.42;31.67;101355.97;5063541;28;20411;-62
2022/10/02 08:37:12;;;;;;;1.70;0.60;;;;;;;25.32;31.21;101357.50;5065490;28;20411;-61
2022/10/02 08:40:10;;;;;;;2.08;0.63;;;;;;;25.29;31.38;101349.03;5068282;28;20423;-60
2022/10/02 08:42:44;;;;;;;2.65;0.60;;;;;;;25.30;31.37;101356.09;5063559;28;20913;-61
2022/10/02 08:45:51;;;;;;;2.00;0.73;;;;;;;25.30;31.51;101348.78;5064976;28;20443;-60
2022/10/02 08:48:50;;;;;;;2.72;0.68;;;;;;;25.30;31.53;101356.09;5066759;28;20399;-61
2022/10/02 08:51:18;;;;;;;1.90;0.50;;;;;;;25.26;31.56;101358.50;5063845;28;20829;-61
2022/10/02 08:53:49;;;;;;;2.63;0.60;;;;;;;25.12;31.67;101346.34;5065305;28;20417;-61
2022/10/02 08:56:37;;;;;;;5.60;0.70;;;;;;;25.09;31.92;101338.72;5065628;28;20856;-61
2022/10/02 08:59:32;;;;;;;5.83;0.70;;;;;;;25.05;32.27;101333.00;5066088;28;20889;-61
2022/10/02 09:02:26;;;;;;;2.80;0.70;;;;;;;25.07;32.11;101333.56;5057368;28;20400;-60
2022/10/02 09:05:10;;;;;;;1.80;0.73;;;;;;;25.04;32.48;101335.94;5063047;28;20433;-60
2022/10/02 09:07:53;;;;;;;3.57;0.60;;;;;;;24.94;32.30;101340.16;5056346;28;20460;-61
2022/10/02 09:10:36;;;;;;;2.20;1.10;;;;;;;24.86;32.41;101329.75;5052833;28;20397;-61
2022/10/02 09:13:30;;;;;;;1.88;0.80;;;;;;;24.85;32.20;101330.00;5053889;28;20446;-62
2022/10/02 09:16:17;;;;;;;2.30;0.70;;;;;;;24.85;32.38;101340.84;5053106;28;20380;-62
2022/10/02 09:19:21;;;;;;;3.53;0.60;;;;;;;24.68;32.40;101335.47;5050878;28;20451;-62
2022/10/02 09:24:09;;;;;;;2.20;0.63;;;;;;;24.87;32.20;101344.94;5028766;28;20763;-60
2022/10/02 09:26:46;;;;;;;0.90;0.60;;;;;;;24.96;32.81;101350.78;5024969;28;20403;-60
2022/10/02 09:29:35;;;;;;;1.67;0.50;;;;;;;24.90;32.80;101349.03;5024898;28;20391;-61
2022/10/02 09:32:42;;;;;;;2.00;0.80;;;;;;;24.85;32.98;101366.09;5023653;28;20403;-62
2022/10/02 09:36:23;;;;;;;1.30;0.70;;;;;;;24.82;33.16;101366.56;5070190;27;20465;-61
2022/10/02 09:41:43;;;;;;;1.48;0.63;;;;;;;24.52;32.78;101365.00;5068392;27;20410;-60
2022/10/02 09:44:43;;;;;;;2.95;0.60;;;;;;;24.41;32.75;101371.34;5065389;28;20722;-61
2022/10/02 09:47:48;;;;;;;2.80;0.70;;;;;;;24.34;33.11;101368.78;5064004;28;20486;-62
2022/10/02 09:50:43;;;;;;;4.20;0.90;;;;;;;24.41;33.37;101374.88;5063253;28;20399;-63
2022/10/02 09:53:20;;;;;;;1.20;0.50;;;;;;;24.31;33.30;101371.16;5063770;28;20427;-62
2022/10/02 09:56:03;;;;;;;1.80;0.70;;;;;;;24.31;33.51;101382.00;5064569;28;21304;-65
2022/10/02 09:58:59;;;;;;;1.73;0.70;;;;;;;24.48;33.99;101380.13;5065001;28;20770;-66
2022/10/02 10:02:05;;;;;;;3.20;0.77;;;;;;;24.45;33.46;101366.25;5063893;28;20909;-64
2022/10/02 10:04:58;;;;;;;1.25;0.55;;;;;;;24.24;33.42;101374.88;5051165;28;20794;-65
2022/10/02 10:07:42;;;;;;;1.80;0.55;;;;;;;24.33;33.30;101363.63;5060874;28;20914;-64
2022/10/02 10:10:29;;;;;;;1.15;0.60;;;;;;;24.29;33.05;101359.75;5060098;28;20380;-65
2022/10/02 10:13:42;;;;;;;2.30;0.80;;;;;;;24.29;33.66;101343.50;5064003;28;20398;-65
2022/10/02 10:19:16;;;;;;;1.67;0.52;;;;;;;24.42;33.62;101346.72;5031633;28;20415;-65
2022/10/02 10:22:06;;;;;;;5.35;1.70;;;;;;;24.33;34.38;101339.25;5024582;28;20395;-66
2022/10/02 10:24:41;;;;;;;2.05;0.68;;;;;;;24.34;33.79;101344.41;5024459;28;20441;-65
2022/10/02 10:27:43;;;;;;;3.25;0.77;;;;;;;24.38;33.97;101342.88;5024266;28;20379;-65
2022/10/02 10:30:30;;;;;;;1.10;0.90;;;;;;;24.38;33.42;101331.19;5023312;28;20483;-63
2022/10/02 10:33:39;;;;;;;1.50;0.90;;;;;;;24.34;33.52;101343.59;5023232;28;20387;-61
2022/10/02 10:39:46;;;;;;;2.70;1.00;;;;;;;24.16;33.33;101331.09;5024605;28;20484;-64
2022/10/02 10:42:41;;;;;;;1.50;0.80;;;;;;;24.20;33.51;101329.53;5024516;28;20423;-60
2022/10/02 10:45:17;;;;;;;4.28;1.10;;;;;;;24.21;33.70;101342.84;5020093;28;20399;-60
2022/10/02 10:48:08;;;;;;;3.15;0.77;;;;;;;24.20;33.28;101330.38;5023857;28;20388;-60
2022/10/02 10:50:44;;;;;;;3.13;0.90;;;;;;;24.20;33.52;101340.38;5023878;28;20383;-60
2022/10/02 10:53:28;;;;;;;1.90;0.80;;;;;;;24.26;32.84;101338.59;5024587;28;20392;-60
2022/10/02 10:56:18;;;;;;;1.38;0.60;;;;;;;24.16;32.23;101328.41;5024932;28;20392;-60
2022/10/02 10:59:05;;;;;;;2.47;0.80;;;;;;;24.23;32.71;101327.16;5022964;28;20398;-60
2022/10/02 11:01:49;;;;;;;1.65;0.80;;;;;;;24.47;32.27;101315.31;5025579;28;20773;-60
2022/10/02 11:04:52;;;;;;;1.70;0.80;;;;;;;24.58;31.83;101315.28;5022637;28;20936;-64
2022/10/02 11:07:26;;;;;;;1.02;0.68;;;;;;;24.49;31.49;101310.47;5022936;28;20383;-60
2022/10/02 11:10:16;;;;;;;1.67;0.60;;;;;;;24.50;31.65;101307.53;5023687;28;20881;-64
2022/10/02 11:12:48;;;;;;;2.67;0.60;;;;;;;24.36;31.30;101298.94;5022110;28;20478;-63
2022/10/02 11:15:35;;;;;;;3.33;0.60;;;;;;;24.47;31.08;101304.50;5023635;28;20463;-60
2022/10/02 11:18:16;;;;;;;1.60;0.65;;;;;;;24.33;31.12;101283.16;5024195;28;20762;-60
2022/10/02 11:20:56;;;;;;;3.60;0.70;;;;;;;24.27;31.09;101294.16;5024008;28;20893;-60
2022/10/02 11:23:46;;;;;;;1.20;0.68;;;;;;;24.26;31.08;101281.69;5023618;28;20403;-59
2022/10/02 11:26:25;;;;;;;2.50;0.60;;;;;;;24.39;31.21;101289.47;5022843;28;20388;-60
2022/10/02 11:28:59;;;;;;;2.08;0.80;;;;;;;24.37;30.70;101283.50;5017032;28;20964;-60
2022/10/02 11:31:58;;;;;;;1.40;0.70;;;;;;;24.22;30.80;101279.47;5010460;28;20419;-60
2022/10/02 11:34:36;;;;;;;1.02;0.52;;;;;;;24.20;30.94;101272.66;5010515;28;20407;-62
2022/10/02 11:38:08;;;;;;;1.10;0.70;;;;;;;24.30;31.10;101278.22;5031703;28;20409;-60
2022/10/02 11:40:43;;;;;;;1.77;0.60;;;;;;;24.32;30.60;101270.69;5023166;28;20403;-60
2022/10/02 11:43:14;;;;;;;2.40;0.50;;;;;;;24.38;30.51;101272.41;5024595;28;20383;-59
2022/10/02 11:45:59;;;;;;;1.20;0.60;;;;;;;24.33;30.40;101257.97;5025084;28;20460;-59
2022/10/02 11:48:32;;;;;;;1.30;0.60;;;;;;;24.38;30.74;101260.72;5023698;28;20384;-59
2022/10/02 11:51:10;;;;;;;2.35;0.80;;;;;;;24.59;30.51;101270.00;5024588;28;20391;-60
2022/10/02 11:53:38;;;;;;;1.20;0.70;;;;;;;24.59;30.58;101261.88;5023645;28;20390;-62
2022/10/02 11:56:38;;;;;;;1.65;0.80;;;;;;;24.53;30.63;101263.69;5023927;28;20481;-60
2022/10/02 11:59:26;;;;;;;2.30;0.95;;;;;;;24.56;30.91;101265.91;5024686;28;20387;-60
2022/10/02 12:03:42;;;;;;;2.75;0.80;;;;;;;24.64;31.22;101242.97;5067303;27;20769;-59
2022/10/02 12:06:41;;;;;;;2.53;0.80;;;;;;;24.67;31.31;101255.19;5063596;28;20398;-60
2022/10/02 12:09:53;;;;;;;1.80;0.80;;;;;;;24.78;31.44;101256.97;5048422;28;20919;-59
2022/10/02 12:12:51;;;;;;;2.15;1.00;;;;;;;24.95;31.86;101249.59;5061400;28;20446;-61
2022/10/02 12:15:29;;;;;;;1.58;0.80;;;;;;;24.99;32.22;101256.16;5064521;28;20390;-59
2022/10/02 12:18:04;;;;;;;3.90;1.05;;;;;;;24.86;32.37;101251.09;5062949;28;20380;-63
2022/10/02 12:27:08;;;;;;;3.88;1.30;;;;;;;24.69;31.47;101251.16;5062851;28;20387;-61
2022/10/02 12:29:49;;;;;;;1.30;0.70;;;;;;;24.66;31.67;101256.28;5063810;28;20404;-61
2022/10/02 12:32:40;;;;;;;1.77;0.80;;;;;;;24.56;31.49;101251.53;5062958;28;20973;-60
2022/10/02 12:35:34;;;;;;;3.00;0.60;;;;;;;24.61;30.97;101248.88;5064397;28;20388;-60
2022/10/02 12:41:47;;;;;;;2.40;0.70;;;;;;;24.67;31.86;101228.09;5048678;27;20465;-62
2022/10/02 12:44:26;;;;;;;2.00;0.70;;;;;;;24.64;32.29;101237.53;5044942;28;20492;-60
2022/10/02 12:47:14;;;;;;;3.00;0.77;;;;;;;24.60;32.03;101233.72;5043856;28;20488;-61
2022/10/02 12:49:50;;;;;;;1.60;0.85;;;;;;;24.52;32.34;101237.63;5045365;28;20809;-60
2022/10/02 12:53:07;;;;;;;1.25;0.70;;;;;;;24.46;32.45;101225.09;5043873;28;20515;-61
2022/10/02 12:55:54;;;;;;;3.63;0.70;;;;;;;24.48;32.13;101232.97;5033286;28;20389;-62
2022/10/02 12:58:32;;;;;;;2.67;0.73;;;;;;;24.52;31.63;101236.81;5045594;28;20388;-60
2022/10/02 13:01:19;;;;;;;1.08;0.77;;;;;;;24.45;31.67;101222.63;5044484;28;20976;-61
2022/10/02 13:04:02;;;;;;;2.10;0.77;;;;;;;24.44;31.94;101227.22;5045083;28;20400;-61
2022/10/02 13:06:30;;;;;;;1.88;0.70;;;;;;;24.46;31.87;101235.13;5044977;28;20737;-61
2022/10/02 13:09:16;;;;;;;3.22;0.70;;;;;;;24.47;31.85;101231.31;5045068;28;20393;-61
2022/10/02 13:12:08;;;;;;;2.70;0.80;;;;;;;24.49;31.98;101221.03;5045117;28;20397;-60
2022/10/02 13:15:05;;;;;;;2.38;0.70;;;;;;;24.56;31.27;101230.69;5045375;28;20382;-60
2022/10/02 13:18:02;;;;;;;4.43;0.80;;;;;;;24.58;31.81;101227.72;5044112;28;20901;-60
2022/10/02 13:21:02;;;;;;;1.97;0.73;;;;;;;24.63;32.03;101224.25;5044316;28;20429;-61
2022/10/02 13:23:48;;;;;;;0.90;0.70;;;;;;;24.65;31.95;101222.09;5042837;28;20760;-61
2022/10/02 13:26:38;;;;;;;0.75;0.60;;;;;;;24.64;31.61;101210.44;5044114;28;20388;-60
2022/10/02 13:29:20;;;;;;;1.45;0.70;;;;;;;24.65;31.42;101205.84;5043455;28;20975;-60
2022/10/02 13:31:49;;;;;;;1.98;0.80;;;;;;;24.71;31.26;101210.25;5043073;28;20386;-61
2022/10/02 13:34:27;;;;;;;2.95;0.73;;;;;;;24.69;31.31;101209.69;5043732;28;20422;-60
2022/10/02 13:37:07;;;;;;;3.90;0.80;;;;;;;24.78;31.71;101209.00;5043264;28;20476;-60
2022/10/02 13:39:51;;;;;;;2.58;0.90;;;;;;;24.79;31.56;101223.34;5046952;28;20424;-60
2022/10/02 13:42:53;;;;;;;1.20;0.80;;;;;;;24.80;31.09;101214.97;5061545;28;20383;-60
2022/10/02 13:45:40;;;;;;;2.50;0.70;;;;;;;24.72;30.82;101210.00;5059971;28;20372;-59
2022/10/02 13:48:30;;;;;;;2.95;0.90;;;;;;;24.70;31.12;101212.13;5060937;28;20408;-60
2022/10/02 13:51:02;;;;;;;1.30;0.70;;;;;;;24.61;30.86;101219.91;5059243;28;20396;-61
2022/10/02 13:53:34;;;;;;;1.20;0.80;;;;;;;24.55;30.87;101212.75;5048345;28;20909;-60
2022/10/02 13:56:42;;;;;;;1.50;0.80;;;;;;;24.50;30.89;101218.09;5048465;28;20474;-61